Terminal Aerodrome Forecast
Issued by NWS

Home | Current Version | Previous Version | Graphics & Text | Print | Product List | Glossary On
Versions: 1 2 3 4 5 6 7 8 9 10 11 12 13 14 15
000
FTUS43 KMPX 200805 AAA
TAFRWF
TAF AMD
KRWF 200805Z 2008/2106 20005KT P6SM FEW200
     FM201400 15007KT P6SM SCT250
     FM202000 15005KT P6SM OVC150=

USA.gov is the U.S. government's official web portal to all federal, state and local government web resources and services.